Time;durP1;ratioP1;P1;durP2;ratioP2;P2;SDS_P1;SDS_P2;PMS_P1;PMS_P2;Temp;Humidity;BMP_temperature;BMP_pressure;BME280_temperature;BME280_humidity;BME280_pressure;Samples;Min_cycle;Max_cycle;Signal;HPM_P1;HPM_P2
2021/10/08 00:01:45;;;;;;;5.35;2.88;;;9.60;99.90;;;;;;5034558;28;20171;-68
2021/10/08 00:04:11;;;;;;;6.40;3.78;;;9.50;99.90;;;;;;5034315;28;20040;-68
2021/10/08 00:06:37;;;;;;;7.78;3.13;;;9.50;99.90;;;;;;5034622;28;20390;-68
2021/10/08 00:09:03;;;;;;;4.85;2.90;;;9.50;99.90;;;;;;5034440;28;20029;-68
2021/10/08 00:11:30;;;;;;;5.13;3.20;;;9.50;99.90;;;;;;5034468;28;20394;-68
2021/10/08 00:13:56;;;;;;;6.20;2.85;;;9.50;99.90;;;;;;5034471;28;20474;-68
2021/10/08 00:16:21;;;;;;;6.35;3.03;;;9.40;99.90;;;;;;5034549;28;20049;-68
2021/10/08 00:18:49;;;;;;;5.32;3.20;;;9.40;99.90;;;;;;5034139;28;20067;-68
2021/10/08 00:21:15;;;;;;;6.93;3.38;;;9.40;99.90;;;;;;5049383;28;20108;-68
2021/10/08 00:23:40;;;;;;;5.35;2.88;;;9.40;99.90;;;;;;5033984;28;20394;-68
2021/10/08 00:26:06;;;;;;;6.03;3.03;;;9.40;99.90;;;;;;5034038;28;20025;-68
2021/10/08 00:28:33;;;;;;;4.45;2.92;;;9.40;99.90;;;;;;5049391;28;20441;-68
2021/10/08 00:31:00;;;;;;;7.97;3.40;;;9.50;99.90;;;;;;5034210;28;20037;-68
2021/10/08 00:33:26;;;;;;;5.20;3.40;;;9.40;99.90;;;;;;5049267;28;20088;-68
2021/10/08 00:35:51;;;;;;;8.80;3.50;;;9.30;99.90;;;;;;5033868;28;20465;-68
2021/10/08 00:38:17;;;;;;;4.88;3.15;;;9.30;99.90;;;;;;5034171;28;20079;-69
2021/10/08 00:40:47;;;;;;;5.90;3.70;;;9.20;99.90;;;;;;5033855;28;20029;-68
2021/10/08 00:43:20;;;;;;;5.82;3.67;;;9.30;99.90;;;;;;5048583;28;20557;-68
2021/10/08 00:45:47;;;;;;;5.95;3.75;;;9.50;99.90;;;;;;5049406;28;20477;-68
2021/10/08 00:48:14;;;;;;;6.50;3.55;;;9.50;99.90;;;;;;5048022;28;20047;-68
2021/10/08 00:50:43;;;;;;;5.97;3.35;;;9.50;99.90;;;;;;5048792;28;20418;-68
2021/10/08 00:53:09;;;;;;;5.82;3.63;;;9.60;99.90;;;;;;5033768;28;20088;-68
2021/10/08 00:55:42;;;;;;;6.70;3.67;;;9.50;99.90;;;;;;5033397;28;20478;-68
2021/10/08 00:58:09;;;;;;;6.97;4.10;;;9.60;99.90;;;;;;5033398;28;20056;-68
2021/10/08 01:00:43;;;;;;;7.75;4.22;;;9.50;99.90;;;;;;5033681;28;20037;-68
2021/10/08 01:03:10;;;;;;;7.15;4.55;;;9.40;99.90;;;;;;5048919;28;20037;-68
2021/10/08 01:05:37;;;;;;;7.43;4.43;;;9.40;99.90;;;;;;5048631;28;20025;-68
2021/10/08 01:08:06;;;;;;;6.95;3.85;;;9.40;99.90;;;;;;5048566;28;20119;-68
2021/10/08 01:10:32;;;;;;;5.75;4.22;;;9.30;99.90;;;;;;5033482;28;20055;-68
2021/10/08 01:13:00;;;;;;;5.93;4.05;;;9.40;99.90;;;;;;5048458;28;20030;-69
2021/10/08 01:15:26;;;;;;;5.40;3.90;;;9.40;99.90;;;;;;5048706;28;20030;-68
2021/10/08 01:17:54;;;;;;;5.88;3.85;;;9.40;99.90;;;;;;5033121;28;20041;-69
2021/10/08 01:20:22;;;;;;;7.60;3.90;;;9.40;99.90;;;;;;5048603;28;20386;-69
2021/10/08 01:22:48;;;;;;;9.02;3.50;;;9.40;99.90;;;;;;5033260;28;20037;-69
2021/10/08 01:25:15;;;;;;;6.70;4.32;;;9.50;99.90;;;;;;5032769;28;20143;-69
2021/10/08 01:27:43;;;;;;;6.63;3.78;;;9.50;99.90;;;;;;5033263;28;20469;-69
2021/10/08 01:30:10;;;;;;;5.72;3.42;;;9.40;99.90;;;;;;5047957;28;20033;-68
2021/10/08 01:32:36;;;;;;;12.25;3.95;;;9.30;99.90;;;;;;5048050;28;20040;-68
2021/10/08 01:35:04;;;;;;;5.32;3.75;;;9.30;99.90;;;;;;5048044;28;20387;-69
2021/10/08 01:37:30;;;;;;;5.80;3.83;;;9.20;99.90;;;;;;5033024;28;20179;-69
2021/10/08 01:39:56;;;;;;;5.10;3.50;;;9.10;99.90;;;;;;5032920;28;20104;-69
2021/10/08 01:42:21;;;;;;;6.35;4.05;;;9.00;99.90;;;;;;5032893;28;20034;-68
2021/10/08 01:44:47;;;;;;;6.10;3.90;;;9.00;99.90;;;;;;5032602;28;20045;-69
2021/10/08 01:47:13;;;;;;;9.82;4.07;;;9.10;99.90;;;;;;5032433;28;20037;-68
2021/10/08 01:49:39;;;;;;;7.70;4.03;;;9.30;99.90;;;;;;5032777;28;20034;-68
2021/10/08 01:52:06;;;;;;;7.18;4.38;;;9.40;99.90;;;;;;5031147;28;20026;-69
2021/10/08 01:54:32;;;;;;;5.90;4.05;;;9.50;99.90;;;;;;5032369;28;20037;-68
2021/10/08 01:56:58;;;;;;;9.68;4.00;;;9.50;99.90;;;;;;5047705;28;20112;-68
2021/10/08 01:59:24;;;;;;;5.82;3.55;;;9.50;99.90;;;;;;5031869;28;20038;-68
2021/10/08 02:01:50;;;;;;;8.57;3.72;;;9.40;99.90;;;;;;5032667;28;20037;-69
2021/10/08 02:04:16;;;;;;;6.03;3.83;;;9.40;99.90;;;;;;5032467;28;20087;-68
2021/10/08 02:06:42;;;;;;;10.07;3.58;;;9.40;99.90;;;;;;5047580;28;20036;-69
2021/10/08 02:09:10;;;;;;;6.85;3.65;;;9.40;99.90;;;;;;5032150;28;20029;-69
2021/10/08 02:11:36;;;;;;;6.53;4.13;;;9.30;99.90;;;;;;5032125;28;20506;-69
2021/10/08 02:14:02;;;;;;;7.72;3.53;;;9.40;99.90;;;;;;5032049;28;20087;-69
2021/10/08 02:16:28;;;;;;;6.53;3.70;;;9.40;99.90;;;;;;5032185;28;20495;-69
2021/10/08 02:18:56;;;;;;;6.35;3.83;;;9.40;99.90;;;;;;5047442;28;20089;-69
2021/10/08 02:21:23;;;;;;;5.93;3.35;;;9.40;99.90;;;;;;5032258;28;20029;-68
2021/10/08 02:23:50;;;;;;;7.50;3.72;;;9.30;99.90;;;;;;5047488;28;20537;-69
2021/10/08 02:26:17;;;;;;;6.05;3.40;;;9.30;99.90;;;;;;5047430;28;20033;-69
2021/10/08 02:28:43;;;;;;;6.60;3.80;;;9.40;99.90;;;;;;5032436;28;20033;-69
2021/10/08 02:31:10;;;;;;;5.57;3.63;;;9.40;99.90;;;;;;5047411;28;20478;-68
2021/10/08 02:33:36;;;;;;;8.23;4.13;;;9.40;99.90;;;;;;5047608;28;20041;-68
2021/10/08 02:36:07;;;;;;;6.65;3.88;;;9.50;99.90;;;;;;5031864;28;20471;-68
2021/10/08 02:38:35;;;;;;;10.30;4.20;;;9.50;99.90;;;;;;5031991;28;20097;-68
2021/10/08 02:41:01;;;;;;;5.20;3.35;;;9.60;99.90;;;;;;5032048;28;20041;-68
2021/10/08 02:43:27;;;;;;;7.47;4.10;;;9.70;99.90;;;;;;5031868;28;20383;-68
2021/10/08 02:45:53;;;;;;;8.25;4.43;;;9.70;99.90;;;;;;5047227;28;20037;-68
2021/10/08 02:48:19;;;;;;;6.15;2.83;;;9.70;99.90;;;;;;5047353;28;20034;-68
2021/10/08 02:50:48;;;;;;;6.70;4.20;;;9.70;99.90;;;;;;5031978;28;20087;-68
2021/10/08 02:53:13;;;;;;;8.48;4.75;;;9.70;99.90;;;;;;5031994;28;20048;-68
2021/10/08 02:55:40;;;;;;;6.38;4.10;;;9.70;99.90;;;;;;5047360;28;20021;-68
2021/10/08 02:58:06;;;;;;;5.70;3.90;;;9.80;99.90;;;;;;5047326;28;20033;-68
2021/10/08 03:00:33;;;;;;;6.60;3.67;;;9.80;99.90;;;;;;5031766;28;20037;-68
2021/10/08 03:02:58;;;;;;;5.88;3.42;;;9.70;99.90;;;;;;5031943;28;20030;-68
2021/10/08 03:05:24;;;;;;;7.75;3.83;;;9.60;99.90;;;;;;5047202;28;20030;-68
2021/10/08 03:07:50;;;;;;;6.97;4.28;;;9.60;99.90;;;;;;5032063;28;20103;-68
2021/10/08 03:10:18;;;;;;;7.47;4.07;;;9.40;99.90;;;;;;5031679;28;20375;-68
2021/10/08 03:12:45;;;;;;;6.28;3.80;;;9.40;99.90;;;;;;5034452;28;20429;-68
2021/10/08 03:15:12;;;;;;;7.57;4.03;;;9.40;99.90;;;;;;5050726;28;20087;-68
2021/10/08 03:17:38;;;;;;;5.80;3.63;;;9.40;99.90;;;;;;5050629;28;20052;-68
2021/10/08 03:20:06;;;;;;;7.03;3.90;;;9.40;99.90;;;;;;5051001;28;20112;-68
2021/10/08 03:22:32;;;;;;;5.80;3.88;;;9.60;99.90;;;;;;5035138;28;20112;-68
2021/10/08 03:24:58;;;;;;;7.10;3.78;;;9.50;99.90;;;;;;5050726;28;20037;-68
2021/10/08 03:27:24;;;;;;;5.90;4.13;;;9.40;99.90;;;;;;5050683;28;20036;-68
2021/10/08 03:29:50;;;;;;;7.65;3.83;;;9.40;99.90;;;;;;5050887;28;20044;-68
2021/10/08 03:32:16;;;;;;;11.02;4.28;;;9.30;99.90;;;;;;5035166;28;20068;-68
2021/10/08 03:34:42;;;;;;;6.55;3.97;;;9.10;99.90;;;;;;5035128;28;20072;-68
2021/10/08 03:37:14;;;;;;;6.80;3.90;;;8.80;99.90;;;;;;5034850;28;20038;-68
2021/10/08 03:39:42;;;;;;;6.65;4.25;;;8.60;99.90;;;;;;5040332;28;20386;-68
2021/10/08 03:42:13;;;;;;;11.43;4.30;;;8.60;99.90;;;;;;5040465;28;20351;-68
2021/10/08 03:44:39;;;;;;;6.93;4.20;;;8.50;99.90;;;;;;5034042;28;20116;-72
2021/10/08 03:47:21;;;;;;;7.88;4.50;;;8.60;99.90;;;;;;5069582;28;20481;-70
2021/10/08 03:49:47;;;;;;;8.23;4.40;;;8.70;99.90;;;;;;5054408;28;20033;-70
2021/10/08 03:52:13;;;;;;;8.38;4.35;;;8.70;99.90;;;;;;5053117;28;20033;-69
2021/10/08 03:54:38;;;;;;;6.93;4.70;;;8.50;99.90;;;;;;5045401;28;20033;-71
2021/10/08 03:57:04;;;;;;;9.88;4.97;;;8.20;99.90;;;;;;5070004;28;20052;-71
2021/10/08 03:59:30;;;;;;;11.70;4.75;;;8.30;99.90;;;;;;5017960;28;20033;-71
2021/10/08 04:01:56;;;;;;;10.65;4.38;;;8.50;99.90;;;;;;5050244;28;20037;-71
2021/10/08 04:04:22;;;;;;;6.97;4.40;;;8.70;99.90;;;;;;5034414;28;20041;-71
2021/10/08 04:06:49;;;;;;;8.13;4.95;;;8.70;99.90;;;;;;5049988;28;20041;-71
2021/10/08 04:09:15;;;;;;;7.22;4.38;;;8.70;99.90;;;;;;5033344;28;20032;-70
2021/10/08 04:11:41;;;;;;;7.05;4.35;;;8.50;99.90;;;;;;5074281;28;20056;-73
2021/10/08 04:14:08;;;;;;;9.70;5.07;;;8.30;99.90;;;;;;5073033;28;20033;-72
2021/10/08 04:16:36;;;;;;;9.43;5.20;;;8.20;99.90;;;;;;5072822;28;20122;-71
2021/10/08 04:19:09;;;;;;;7.25;4.45;;;8.20;99.90;;;;;;5043441;28;20514;-71
2021/10/08 04:21:34;;;;;;;11.55;4.20;;;8.30;99.90;;;;;;5048686;28;20034;-70
2021/10/08 04:24:01;;;;;;;6.57;4.72;;;8.50;99.90;;;;;;5048545;28;20045;-72
2021/10/08 04:26:26;;;;;;;8.27;4.75;;;8.60;99.90;;;;;;5033397;28;20041;-71
2021/10/08 04:28:52;;;;;;;8.20;4.10;;;8.70;99.90;;;;;;5033906;28;20029;-71
2021/10/08 04:31:18;;;;;;;9.20;4.55;;;8.80;99.90;;;;;;5034014;28;20519;-69
2021/10/08 04:33:43;;;;;;;11.40;5.20;;;8.90;99.90;;;;;;5045468;28;20094;-68
2021/10/08 04:36:09;;;;;;;9.27;5.35;;;8.80;99.90;;;;;;5046216;28;20061;-71
2021/10/08 04:38:35;;;;;;;10.02;4.97;;;8.70;99.90;;;;;;5049793;28;20028;-72
2021/10/08 04:41:01;;;;;;;8.00;4.82;;;8.80;99.90;;;;;;5089668;28;20101;-72
2021/10/08 04:43:27;;;;;;;6.78;4.60;;;8.90;99.90;;;;;;5073203;28;20032;-71
2021/10/08 04:45:53;;;;;;;10.82;5.93;;;9.00;99.90;;;;;;5072386;28;20542;-73
2021/10/08 04:48:22;;;;;;;9.82;5.63;;;8.90;99.90;;;;;;5049062;28;20389;-69
2021/10/08 04:50:48;;;;;;;12.23;5.40;;;8.90;99.90;;;;;;5049544;28;20024;-71
2021/10/08 04:53:23;;;;;;;8.60;5.53;;;8.70;99.90;;;;;;5038798;28;20034;-71
2021/10/08 04:55:52;;;;;;;13.48;5.20;;;8.70;99.90;;;;;;5048886;28;20389;-71
2021/10/08 04:58:19;;;;;;;12.57;5.25;;;8.70;99.90;;;;;;5034944;28;20037;-71
2021/10/08 05:00:45;;;;;;;8.20;4.47;;;8.80;99.90;;;;;;5033400;28;20037;-71
2021/10/08 05:03:17;;;;;;;6.93;4.88;;;8.80;99.90;;;;;;5048489;28;20037;-70
2021/10/08 05:05:47;;;;;;;8.07;4.65;;;8.80;99.90;;;;;;5051967;28;20033;-71
2021/10/08 05:08:15;;;;;;;8.10;5.07;;;8.80;99.90;;;;;;5068254;28;20029;-71
2021/10/08 05:10:41;;;;;;;9.68;5.22;;;8.80;99.90;;;;;;5073374;28;20032;-71
2021/10/08 05:13:08;;;;;;;10.57;5.50;;;8.80;99.90;;;;;;5062956;28;20127;-71
2021/10/08 05:15:33;;;;;;;9.93;5.25;;;8.80;99.90;;;;;;5051636;28;20441;-71
2021/10/08 05:17:59;;;;;;;9.95;5.88;;;8.80;99.90;;;;;;5051598;28;20084;-71
2021/10/08 05:20:25;;;;;;;10.85;6.00;;;8.90;99.90;;;;;;5051947;28;20033;-73
2021/10/08 05:22:51;;;;;;;8.50;5.63;;;9.00;99.90;;;;;;5052628;28;20120;-71
2021/10/08 05:25:17;;;;;;;12.02;5.22;;;8.90;99.90;;;;;;5052471;28;20520;-73
2021/10/08 05:27:44;;;;;;;11.10;5.38;;;8.80;99.90;;;;;;5052783;28;20029;-73
2021/10/08 05:30:10;;;;;;;11.05;5.55;;;8.80;99.90;;;;;;5051430;28;20061;-73
2021/10/08 05:32:37;;;;;;;9.05;5.95;;;9.00;99.90;;;;;;5051078;28;20040;-72
2021/10/08 05:35:03;;;;;;;11.95;5.57;;;9.10;99.90;;;;;;5050541;28;20370;-72
2021/10/08 05:37:29;;;;;;;8.52;5.00;;;9.20;99.90;;;;;;5039208;28;20025;-72
2021/10/08 05:39:55;;;;;;;9.00;5.43;;;9.30;99.90;;;;;;5032617;28;20028;-72
2021/10/08 05:42:21;;;;;;;7.85;4.90;;;9.40;99.90;;;;;;5032223;28;20556;-72
2021/10/08 05:44:47;;;;;;;9.95;4.78;;;9.40;99.90;;;;;;5037686;28;20447;-72
2021/10/08 05:47:12;;;;;;;10.32;5.13;;;9.50;99.90;;;;;;5067795;28;20393;-72
2021/10/08 05:49:39;;;;;;;7.82;4.78;;;9.60;99.90;;;;;;5052385;28;20039;-72
2021/10/08 05:52:05;;;;;;;6.93;4.85;;;9.60;99.90;;;;;;5052144;28;20029;-73
2021/10/08 05:54:32;;;;;;;7.43;4.25;;;9.60;99.90;;;;;;5067694;28;20063;-72
2021/10/08 05:56:57;;;;;;;8.38;4.93;;;9.60;99.90;;;;;;5052261;28;20024;-72
2021/10/08 05:59:23;;;;;;;11.45;5.20;;;9.60;99.90;;;;;;5052363;28;20029;-72
2021/10/08 06:01:49;;;;;;;9.27;4.57;;;9.60;99.90;;;;;;5067336;28;20036;-72
2021/10/08 06:04:15;;;;;;;10.35;5.45;;;9.60;99.90;;;;;;5052156;28;20029;-72
2021/10/08 06:06:41;;;;;;;7.53;4.40;;;9.60;99.90;;;;;;5067763;28;20029;-72
2021/10/08 06:09:07;;;;;;;7.43;4.60;;;9.60;99.90;;;;;;5052290;28;20037;-72
2021/10/08 06:11:33;;;;;;;7.75;5.03;;;9.60;99.90;;;;;;5067386;28;20120;-72
2021/10/08 06:14:00;;;;;;;9.95;6.07;;;9.60;99.90;;;;;;5052188;28;20079;-72
2021/10/08 06:16:25;;;;;;;10.50;4.80;;;9.60;99.90;;;;;;5067226;28;20075;-72
2021/10/08 06:18:51;;;;;;;16.08;5.28;;;9.70;99.90;;;;;;5067256;28;20056;-72
2021/10/08 06:21:17;;;;;;;12.40;5.35;;;9.70;99.90;;;;;;5051723;28;20779;-73
2021/10/08 06:23:43;;;;;;;16.88;6.13;;;9.90;99.90;;;;;;5051645;28;20085;-72
2021/10/08 06:26:09;;;;;;;20.30;5.97;;;9.90;99.90;;;;;;5067722;28;20032;-72
2021/10/08 06:28:35;;;;;;;7.07;4.60;;;10.00;99.90;;;;;;5051879;28;20041;-72
2021/10/08 06:31:00;;;;;;;10.55;5.07;;;10.10;99.90;;;;;;5051920;28;20021;-73
2021/10/08 06:33:26;;;;;;;11.30;4.70;;;10.00;99.90;;;;;;5051863;28;20033;-72
2021/10/08 06:35:52;;;;;;;8.23;4.60;;;10.10;99.90;;;;;;5052120;28;20084;-72
2021/10/08 06:38:18;;;;;;;10.98;4.55;;;10.20;99.90;;;;;;5051361;28;20037;-72
2021/10/08 06:40:44;;;;;;;8.23;4.55;;;10.30;99.90;;;;;;5067322;28;20064;-72
2021/10/08 06:43:10;;;;;;;8.68;4.55;;;10.30;99.90;;;;;;5050852;28;20111;-72
2021/10/08 06:45:37;;;;;;;7.88;5.07;;;10.30;99.90;;;;;;5052709;28;20151;-73
2021/10/08 06:48:04;;;;;;;8.32;4.45;;;10.30;99.90;;;;;;5055743;28;20039;-72
2021/10/08 06:50:30;;;;;;;8.00;3.75;;;10.30;99.90;;;;;;5054184;28;20110;-72
2021/10/08 06:52:56;;;;;;;10.35;4.78;;;10.40;99.90;;;;;;5055668;28;20029;-72
2021/10/08 06:55:23;;;;;;;6.03;4.10;;;10.40;99.90;;;;;;5037659;28;20048;-72
2021/10/08 06:57:48;;;;;;;9.63;3.67;;;10.40;99.90;;;;;;5055981;28;20036;-72
2021/10/08 07:00:14;;;;;;;14.88;4.45;;;10.40;99.90;;;;;;5053912;28;20398;-72
2021/10/08 07:02:54;;;;;;;7.07;3.97;;;10.60;99.90;;;;;;5055767;28;20133;-72
2021/10/08 07:05:23;;;;;;;8.75;4.32;;;10.50;99.90;;;;;;5071004;28;20031;-72
2021/10/08 07:07:51;;;;;;;15.02;4.57;;;10.60;99.90;;;;;;5070741;28;20091;-73
2021/10/08 07:10:17;;;;;;;9.68;3.95;;;10.70;99.90;;;;;;5070659;28;20033;-73
2021/10/08 07:12:43;;;;;;;7.60;3.88;;;10.80;99.90;;;;;;5055461;28;20037;-73
2021/10/08 07:15:17;;;;;;;6.88;4.35;;;10.90;99.90;;;;;;5070643;28;20036;-73
2021/10/08 07:17:50;;;;;;;9.85;4.55;;;10.80;99.90;;;;;;5055659;28;20041;-73
2021/10/08 07:20:25;;;;;;;8.98;4.43;;;10.80;99.90;;;;;;5070198;28;20106;-73
2021/10/08 07:22:52;;;;;;;6.85;4.00;;;10.90;99.90;;;;;;5055546;28;20036;-73
2021/10/08 07:25:21;;;;;;;11.18;3.88;;;11.00;99.90;;;;;;5055137;28;20090;-73
2021/10/08 07:27:47;;;;;;;6.53;4.03;;;11.10;99.90;;;;;;5055066;28;20025;-73
2021/10/08 07:30:15;;;;;;;7.50;4.00;;;11.30;99.90;;;;;;5055267;28;20086;-73
2021/10/08 07:32:41;;;;;;;8.13;4.35;;;11.40;99.90;;;;;;5055294;28;20060;-72
2021/10/08 07:35:08;;;;;;;8.25;4.35;;;11.40;99.90;;;;;;5070596;28;20040;-73
2021/10/08 07:37:36;;;;;;;11.85;4.55;;;11.50;99.90;;;;;;5055390;28;20044;-73
2021/10/08 07:40:03;;;;;;;8.27;3.70;;;11.60;99.90;;;;;;5070105;28;20090;-73
2021/10/08 07:42:29;;;;;;;5.25;3.55;;;11.70;99.90;;;;;;5070183;28;20531;-73
2021/10/08 07:44:54;;;;;;;7.03;4.30;;;11.80;99.90;;;;;;5053493;28;20029;-69
2021/10/08 07:47:21;;;;;;;5.88;4.13;;;11.80;99.90;;;;;;5054953;28;20367;-73
2021/10/08 07:49:47;;;;;;;7.85;5.00;;;11.90;99.90;;;;;;5069239;28;20040;-72
2021/10/08 07:52:13;;;;;;;5.80;4.22;;;11.90;99.90;;;;;;5036967;28;20052;-72
2021/10/08 07:54:39;;;;;;;7.65;3.88;;;12.10;99.90;;;;;;5053990;28;20051;-72
2021/10/08 07:57:08;;;;;;;6.05;3.83;;;12.20;99.90;;;;;;5036352;28;20450;-72
2021/10/08 07:59:34;;;;;;;4.80;3.30;;;12.20;99.90;;;;;;5054770;28;20124;-72
2021/10/08 08:02:00;;;;;;;6.97;3.60;;;12.20;99.90;;;;;;5054649;28;20490;-72
2021/10/08 08:04:26;;;;;;;5.97;3.92;;;12.40;99.90;;;;;;5054426;28;20037;-72
2021/10/08 08:06:51;;;;;;;4.30;3.10;;;12.40;99.90;;;;;;5069756;28;20033;-72
2021/10/08 08:09:17;;;;;;;4.80;2.97;;;12.60;99.90;;;;;;5052735;28;20029;-73
2021/10/08 08:11:43;;;;;;;6.25;3.83;;;12.70;99.90;;;;;;5054209;28;20043;-72
2021/10/08 08:14:09;;;;;;;5.63;3.15;;;12.80;99.90;;;;;;5054374;28;20043;-73
2021/10/08 08:16:35;;;;;;;5.57;3.22;;;12.80;99.90;;;;;;5035972;28;20033;-73
2021/10/08 08:19:01;;;;;;;4.97;3.03;;;12.90;99.90;;;;;;5053299;28;20151;-73
2021/10/08 08:21:27;;;;;;;5.68;3.00;;;12.90;99.90;;;;;;5053051;28;20025;-73
2021/10/08 08:23:53;;;;;;;4.93;2.95;;;13.10;99.90;;;;;;5054080;28;20032;-73
2021/10/08 08:26:19;;;;;;;8.70;3.13;;;13.20;99.90;;;;;;5052872;28;20110;-74
2021/10/08 08:28:45;;;;;;;5.00;2.75;;;13.30;99.90;;;;;;5054145;28;20040;-73
2021/10/08 08:31:12;;;;;;;4.82;3.00;;;13.40;99.90;;;;;;5054023;28;20381;-73
2021/10/08 08:33:38;;;;;;;4.10;2.63;;;13.40;99.90;;;;;;5052419;28;20423;-73
2021/10/08 08:36:05;;;;;;;6.43;3.42;;;13.50;99.90;;;;;;5054098;28;20108;-73
2021/10/08 08:38:31;;;;;;;6.50;2.38;;;13.70;99.90;;;;;;5053914;28;20033;-73
2021/10/08 08:40:59;;;;;;;6.25;2.80;;;13.70;99.90;;;;;;5036115;28;20485;-73
2021/10/08 08:43:28;;;;;;;4.82;3.03;;;13.80;99.90;;;;;;5035804;28;20432;-73
2021/10/08 08:45:55;;;;;;;4.85;2.55;;;13.90;99.90;;;;;;5052293;28;20029;-73
2021/10/08 08:48:21;;;;;;;7.47;3.35;;;14.00;99.90;;;;;;5053587;28;20037;-73
2021/10/08 08:50:49;;;;;;;7.60;2.65;;;14.10;99.90;;;;;;5035900;28;20568;-73
2021/10/08 08:53:21;;;;;;;7.45;2.70;;;14.10;99.90;;;;;;5068790;28;20090;-73
2021/10/08 08:55:51;;;;;;;13.07;3.00;;;14.30;99.90;;;;;;5053394;28;20363;-73
2021/10/08 08:58:19;;;;;;;8.02;2.80;;;14.30;99.90;;;;;;5052074;28;20029;-73
2021/10/08 09:00:54;;;;;;;6.15;2.67;;;14.40;99.90;;;;;;5035861;28;20466;-73
2021/10/08 09:03:20;;;;;;;4.63;2.58;;;14.50;99.90;;;;;;5052626;28;20033;-74
2021/10/08 09:05:47;;;;;;;7.60;3.42;;;14.80;99.90;;;;;;5068689;28;20079;-73
2021/10/08 09:08:14;;;;;;;12.70;6.55;;;14.90;99.90;;;;;;5053001;28;20036;-74
2021/10/08 09:10:44;;;;;;;6.07;2.28;;;15.00;99.90;;;;;;5052391;28;20037;-73
2021/10/08 09:13:09;;;;;;;5.05;2.42;;;14.90;99.90;;;;;;5052872;28;20082;-73
2021/10/08 09:15:52;;;;;;;7.78;2.40;;;15.00;99.90;;;;;;5051631;28;20025;-74
2021/10/08 09:18:21;;;;;;;6.85;2.50;;;15.40;99.90;;;;;;5051394;28;20120;-74
2021/10/08 09:21:12;;;;;;;8.35;2.50;;;15.40;99.90;;;;;;5051578;28;20033;-71
2021/10/08 09:23:47;;;;;;;3.92;2.50;;;15.50;99.90;;;;;;5052584;28;20037;-73
2021/10/08 09:26:25;;;;;;;7.45;2.17;;;15.60;99.90;;;;;;5052593;28;20029;-74
2021/10/08 09:29:02;;;;;;;7.32;2.10;;;15.90;99.90;;;;;;5035129;28;20043;-74
2021/10/08 09:31:41;;;;;;;4.88;2.10;;;16.10;99.90;;;;;;5051607;28;20025;-73
2021/10/08 09:34:21;;;;;;;3.75;2.20;;;16.30;99.90;;;;;;5051930;28;20070;-73
2021/10/08 09:37:02;;;;;;;4.38;2.10;;;16.60;99.90;;;;;;5051473;28;20090;-73
2021/10/08 09:39:32;;;;;;;4.82;2.15;;;16.70;99.90;;;;;;5036083;28;20025;-73
2021/10/08 09:42:01;;;;;;;7.72;2.20;;;16.90;99.90;;;;;;5052335;28;20029;-72
2021/10/08 09:44:30;;;;;;;4.18;2.25;;;17.00;99.90;;;;;;5052142;28;20037;-74
2021/10/08 09:47:16;;;;;;;5.93;1.95;;;17.00;99.90;;;;;;5052705;28;20041;-74
2021/10/08 09:49:45;;;;;;;5.95;1.80;;;17.20;99.90;;;;;;5052085;28;20052;-72
2021/10/08 09:52:40;;;;;;;4.85;2.25;;;17.40;99.90;;;;;;5052436;28;20095;-72
2021/10/08 09:55:08;;;;;;;7.55;2.63;;;17.00;99.90;;;;;;5050933;28;20041;-72
2021/10/08 09:57:49;;;;;;;5.72;2.38;;;16.90;99.90;;;;;;5067095;28;20032;-72
2021/10/08 10:00:42;;;;;;;5.60;2.40;;;16.80;99.90;;;;;;5052454;28;20037;-72
2021/10/08 10:03:12;;;;;;;4.45;2.00;;;16.80;99.90;;;;;;5052160;28;20094;-72
2021/10/08 10:05:38;;;;;;;4.30;2.17;;;17.00;99.90;;;;;;5052044;28;20069;-72
2021/10/08 10:08:05;;;;;;;3.53;2.10;;;16.60;99.90;;;;;;5067650;28;20033;-72
2021/10/08 10:10:32;;;;;;;5.38;2.50;;;16.60;99.90;;;;;;5051803;28;20037;-72
2021/10/08 10:13:00;;;;;;;5.10;2.60;;;16.70;99.90;;;;;;5052021;28;20021;-73
2021/10/08 10:15:27;;;;;;;5.10;2.42;;;16.70;99.90;;;;;;5067297;28;20044;-73
2021/10/08 10:17:54;;;;;;;7.47;3.60;;;16.70;99.90;;;;;;5067344;28;20041;-72
2021/10/08 10:20:20;;;;;;;8.57;4.40;;;16.80;99.90;;;;;;5067338;28;20040;-73
2021/10/08 10:22:48;;;;;;;8.82;4.25;;;16.90;99.90;;;;;;5051896;28;20029;-73
2021/10/08 10:25:14;;;;;;;12.38;5.43;;;16.80;99.90;;;;;;5067163;28;20371;-73
2021/10/08 10:27:43;;;;;;;5.13;3.50;;;16.90;99.90;;;;;;5051843;28;20054;-72
2021/10/08 10:30:11;;;;;;;7.28;3.78;;;17.00;99.90;;;;;;5067645;28;20075;-72
2021/10/08 10:32:42;;;;;;;7.57;3.70;;;17.10;99.90;;;;;;5067411;28;20362;-73
2021/10/08 10:35:46;;;;;;;5.18;3.42;;;17.20;99.90;;;;;;5066744;28;20044;-73
2021/10/08 10:38:34;;;;;;;9.35;4.20;;;17.30;99.90;;;;;;5050634;28;20559;-73
2021/10/08 10:41:25;;;;;;;8.52;3.80;;;17.40;99.90;;;;;;5066106;28;20443;-72
2021/10/08 10:43:55;;;;;;;7.93;4.00;;;17.60;99.90;;;;;;5053634;28;20044;-72
2021/10/08 10:52:01;;;;;;;8.00;4.22;;;18.50;99.90;;;;;;5051685;28;20470;-72
2021/10/08 10:54:53;;;;;;;9.45;5.00;;;19.00;99.90;;;;;;5066762;28;20114;-72
2021/10/08 10:57:32;;;;;;;8.23;4.25;;;19.40;99.90;;;;;;5053490;28;20037;-72
2021/10/08 11:00:37;;;;;;;6.65;4.25;;;19.70;99.90;;;;;;5051754;28;20588;-72
2021/10/08 11:03:12;;;;;;;7.28;4.07;;;19.60;99.90;;;;;;5051349;28;20056;-73
2021/10/08 11:05:41;;;;;;;7.50;4.05;;;19.00;99.90;;;;;;5051637;28;20056;-73
2021/10/08 11:08:14;;;;;;;9.70;4.55;;;19.50;99.90;;;;;;5051669;28;20067;-72
2021/10/08 11:11:00;;;;;;;7.25;4.10;;;19.00;99.90;;;;;;5051408;28;20043;-72
2021/10/08 11:13:34;;;;;;;7.00;4.40;;;19.50;99.90;;;;;;5066729;28;20037;-72
2021/10/08 11:16:05;;;;;;;7.07;3.65;;;20.00;99.90;;;;;;5051809;28;20037;-72
2021/10/08 11:18:42;;;;;;;6.63;4.10;;;20.30;99.90;;;;;;5051063;28;20049;-72
2021/10/08 11:21:11;;;;;;;7.45;4.18;;;20.20;99.90;;;;;;5051339;28;20094;-72
2021/10/08 11:23:41;;;;;;;11.82;4.53;;;20.50;99.10;;;;;;5065541;28;20060;-72
2021/10/08 11:26:14;;;;;;;6.28;3.70;;;20.40;98.80;;;;;;5050976;28;20057;-72
2021/10/08 11:28:43;;;;;;;6.55;3.83;;;19.70;99.80;;;;;;5066275;28;20379;-73
2021/10/08 11:31:18;;;;;;;8.52;4.55;;;20.20;99.80;;;;;;5051360;28;20025;-73
2021/10/08 11:33:50;;;;;;;7.57;4.40;;;20.30;99.10;;;;;;5053941;28;20068;-72
2021/10/08 11:36:29;;;;;;;6.75;3.50;;;20.40;98.90;;;;;;5054826;28;20075;-73
2021/10/08 11:39:28;;;;;;;9.20;4.05;;;20.90;98.00;;;;;;5053801;28;20489;-73
2021/10/08 11:42:21;;;;;;;7.07;4.13;;;20.30;99.20;;;;;;5053312;28;20044;-73
2021/10/08 11:45:05;;;;;;;10.43;4.63;;;21.40;97.70;;;;;;5054245;28;20041;-73
2021/10/08 11:50:44;;;;;;;6.30;3.75;;;23.10;95.20;;;;;;5053473;28;20033;-73
2021/10/08 11:53:11;;;;;;;10.05;4.40;;;24.00;93.30;;;;;;5054554;28;20029;-73
2021/10/08 11:55:40;;;;;;;7.68;4.20;;;24.60;91.90;;;;;;5036493;28;20466;-73
2021/10/08 11:58:11;;;;;;;7.15;3.97;;;24.60;91.10;;;;;;5054551;28;20041;-73
2021/10/08 12:00:42;;;;;;;7.57;4.13;;;24.40;91.50;;;;;;5052683;28;20013;-73
2021/10/08 12:03:12;;;;;;;6.13;3.88;;;23.50;92.00;;;;;;5054180;28;20128;-73
2021/10/08 12:06:01;;;;;;;8.10;4.10;;;24.70;91.10;;;;;;5054383;28;20037;-73
2021/10/08 12:08:37;;;;;;;7.20;4.30;;;23.60;91.60;;;;;;5036854;28;20029;-73
2021/10/08 12:11:10;;;;;;;5.35;3.63;;;23.00;92.90;;;;;;5069405;28;20043;-73
2021/10/08 12:14:08;;;;;;;6.68;3.60;;;23.50;91.30;;;;;;5068886;28;20474;-73
2021/10/08 12:16:43;;;;;;;6.45;4.32;;;24.10;91.50;;;;;;5054338;28;20041;-73
2021/10/08 12:19:12;;;;;;;6.53;4.30;;;25.10;90.10;;;;;;5052590;28;20052;-73
2021/10/08 12:21:50;;;;;;;6.13;3.95;;;23.90;90.30;;;;;;5069155;28;20300;-73
2021/10/08 12:24:20;;;;;;;7.75;4.07;;;24.10;90.50;;;;;;5053900;28;20073;-73
2021/10/08 12:26:57;;;;;;;8.98;3.85;;;23.70;90.20;;;;;;5068736;28;20371;-73
2021/10/08 12:29:24;;;;;;;6.25;4.00;;;22.90;91.40;;;;;;5053849;28;20433;-73
2021/10/08 12:31:53;;;;;;;10.80;6.40;;;23.70;90.70;;;;;;5069139;28;20047;-72
2021/10/08 12:34:46;;;;;;;7.53;4.40;;;23.80;90.70;;;;;;5052396;28;20029;-72
2021/10/08 12:37:20;;;;;;;7.07;4.22;;;23.50;91.60;;;;;;5054128;28;20041;-72
2021/10/08 12:40:12;;;;;;;7.07;4.55;;;22.50;91.90;;;;;;5053312;28;20033;-72
2021/10/08 12:43:02;;;;;;;7.35;4.32;;;21.90;92.70;;;;;;5053291;28;20035;-72
2021/10/08 12:45:36;;;;;;;6.22;4.38;;;22.90;92.20;;;;;;5053772;28;20033;-72
2021/10/08 12:48:04;;;;;;;6.55;4.18;;;22.10;92.60;;;;;;5069083;28;20045;-72
2021/10/08 12:50:34;;;;;;;7.55;4.80;;;22.50;92.40;;;;;;5068903;28;20037;-72
2021/10/08 12:53:00;;;;;;;8.82;4.70;;;21.50;93.40;;;;;;5068255;28;20056;-72
2021/10/08 12:55:25;;;;;;;7.63;4.95;;;21.70;94.20;;;;;;5068285;28;20143;-72
2021/10/08 12:58:11;;;;;;;7.35;4.70;;;21.00;94.70;;;;;;5068199;28;20028;-72
2021/10/08 13:01:00;;;;;;;7.72;4.50;;;20.80;95.90;;;;;;5052864;28;20401;-72
2021/10/08 13:03:33;;;;;;;10.93;5.18;;;20.60;95.80;;;;;;5068162;28;20494;-73
2021/10/08 13:06:00;;;;;;;6.18;4.68;;;20.40;96.10;;;;;;5068534;28;20044;-72
2021/10/08 13:08:29;;;;;;;7.13;4.57;;;20.70;96.40;;;;;;5068392;28;20063;-72
2021/10/08 13:11:09;;;;;;;7.38;4.40;;;21.30;95.20;;;;;;5067705;28;20025;-73